Time;durP1;ratioP1;P1;durP2;ratioP2;P2;SDS_P1;SDS_P2;PMS_P1;PMS_P2;Temp;Humidity;BMP_temperature;BMP_pressure;BME280_temperature;BME280_humidity;BME280_pressure;Samples;Min_cycle;Max_cycle;Signal;HPM_P1;HPM_P2
2020/12/19 00:00:19;;;;;;;10.30;9.30;;;7.30;99.90;;;;;;5071312;28;20184;-74
2020/12/19 00:02:44;;;;;;;11.90;10.53;;;7.40;99.90;;;;;;5070817;28;20188;-74
2020/12/19 00:05:10;;;;;;;11.57;10.20;;;7.40;99.90;;;;;;5070443;28;20206;-73
2020/12/19 00:07:36;;;;;;;11.30;10.10;;;7.40;99.90;;;;;;5056866;28;20191;-74
2020/12/19 00:10:02;;;;;;;12.47;10.20;;;7.40;99.90;;;;;;5071321;28;20187;-74
2020/12/19 00:12:28;;;;;;;11.03;8.90;;;7.50;99.90;;;;;;5069368;28;20289;-74
2020/12/19 00:14:53;;;;;;;9.83;8.90;;;7.50;99.90;;;;;;5070282;28;20575;-74
2020/12/19 00:17:19;;;;;;;10.60;9.50;;;7.50;99.90;;;;;;5071025;28;20191;-74
2020/12/19 00:19:44;;;;;;;9.20;8.30;;;7.50;99.90;;;;;;5076698;28;20315;-74
2020/12/19 00:22:10;;;;;;;10.57;9.50;;;7.50;99.90;;;;;;5074837;28;20183;-74
2020/12/19 00:24:35;;;;;;;11.40;8.87;;;7.50;99.90;;;;;;5073010;28;20211;-73
2020/12/19 00:27:01;;;;;;;10.17;9.17;;;7.50;99.90;;;;;;5074960;28;20240;-74
2020/12/19 00:29:27;;;;;;;10.97;9.87;;;7.50;99.90;;;;;;5051800;28;20723;-74
2020/12/19 00:31:52;;;;;;;11.83;9.93;;;7.50;99.90;;;;;;5070098;28;20195;-74
2020/12/19 00:34:18;;;;;;;9.80;8.80;;;7.60;99.90;;;;;;5052685;28;20219;-74
2020/12/19 00:36:44;;;;;;;9.87;8.80;;;7.60;99.90;;;;;;5071309;28;20637;-74
2020/12/19 00:39:10;;;;;;;9.77;8.87;;;7.60;99.90;;;;;;5051787;28;20198;-74
2020/12/19 00:41:35;;;;;;;10.17;9.17;;;7.60;99.90;;;;;;5070403;28;20442;-74
2020/12/19 00:44:01;;;;;;;10.50;8.70;;;7.60;99.90;;;;;;5054541;28;20187;-73
2020/12/19 00:46:27;;;;;;;11.67;10.47;;;7.60;99.90;;;;;;5069790;28;20278;-74
2020/12/19 00:48:52;;;;;;;11.57;9.43;;;7.60;99.90;;;;;;5054666;28;20230;-74
2020/12/19 00:51:22;;;;;;;10.00;8.97;;;7.60;99.90;;;;;;5071559;28;20206;-74
2020/12/19 00:53:49;;;;;;;8.83;8.00;;;7.50;99.90;;;;;;5071356;28;20254;-74
2020/12/19 00:56:24;;;;;;;11.67;9.30;;;7.50;99.90;;;;;;5071775;28;20438;-74
2020/12/19 00:58:54;;;;;;;9.73;8.73;;;7.50;99.90;;;;;;5072713;28;20800;-73
2020/12/19 01:01:21;;;;;;;10.70;9.23;;;7.60;99.90;;;;;;5069260;28;20517;-74
2020/12/19 01:03:48;;;;;;;9.63;8.73;;;7.50;99.90;;;;;;5051944;28;20473;-74
2020/12/19 01:06:17;;;;;;;11.87;10.00;;;7.50;99.90;;;;;;5073817;28;20444;-74
2020/12/19 01:08:48;;;;;;;9.47;8.47;;;7.50;99.90;;;;;;5071892;28;20955;-74
2020/12/19 01:11:18;;;;;;;11.27;10.07;;;7.50;99.90;;;;;;5057913;28;20449;-74
2020/12/19 01:13:45;;;;;;;11.40;10.20;;;7.50;99.90;;;;;;5072218;28;20526;-73
2020/12/19 01:16:15;;;;;;;11.73;10.53;;;7.50;99.90;;;;;;5076515;28;20441;-74
2020/12/19 01:18:42;;;;;;;10.70;9.60;;;7.50;99.90;;;;;;5079261;28;20442;-74
2020/12/19 01:21:21;;;;;;;9.97;8.97;;;7.50;99.90;;;;;;5075131;28;20436;-74
2020/12/19 01:23:48;;;;;;;11.80;9.90;;;7.50;99.90;;;;;;5072527;28;20453;-74
2020/12/19 01:26:14;;;;;;;11.50;10.37;;;7.50;99.90;;;;;;5074716;28;20525;-74
2020/12/19 01:28:40;;;;;;;9.80;8.77;;;7.50;99.90;;;;;;5058168;28;20814;-74
2020/12/19 01:31:07;;;;;;;14.20;10.10;;;7.40;99.90;;;;;;5072342;28;20437;-73
2020/12/19 01:33:34;;;;;;;11.27;10.17;;;7.50;99.90;;;;;;5058726;28;20611;-73
2020/12/19 01:36:00;;;;;;;10.57;9.43;;;7.50;99.90;;;;;;5079506;28;20448;-74
2020/12/19 01:38:26;;;;;;;11.13;10.07;;;7.40;99.90;;;;;;5071274;28;20441;-73
2020/12/19 01:40:53;;;;;;;12.40;10.80;;;7.40;99.90;;;;;;5072176;28;20437;-73
2020/12/19 01:43:19;;;;;;;10.13;9.10;;;7.40;99.90;;;;;;5075038;28;20190;-74
2020/12/19 01:45:45;;;;;;;13.00;9.43;;;7.40;99.90;;;;;;5071937;28;20441;-73
2020/12/19 01:48:28;;;;;;;12.03;10.83;;;7.40;99.90;;;;;;5072153;28;20206;-74
2020/12/19 01:50:54;;;;;;;13.20;11.23;;;7.40;99.90;;;;;;5074117;28;20198;-74
2020/12/19 01:53:20;;;;;;;10.83;9.70;;;7.40;99.90;;;;;;5072067;28;20547;-74
2020/12/19 01:55:46;;;;;;;10.90;9.80;;;7.40;99.90;;;;;;5072350;28;20611;-74
2020/12/19 01:58:12;;;;;;;11.40;9.00;;;7.40;99.90;;;;;;5078138;28;20434;-74
2020/12/19 02:00:41;;;;;;;11.20;9.83;;;7.40;99.90;;;;;;5071427;28;20452;-74
2020/12/19 02:03:07;;;;;;;10.53;9.50;;;7.40;99.90;;;;;;5073887;28;20270;-74
2020/12/19 02:05:35;;;;;;;12.90;9.37;;;7.40;99.90;;;;;;5056086;28;20498;-74
2020/12/19 02:08:02;;;;;;;11.67;10.47;;;7.30;99.90;;;;;;5053732;28;20449;-74
2020/12/19 02:10:32;;;;;;;12.43;10.37;;;7.30;99.90;;;;;;5075832;28;20441;-74
2020/12/19 02:12:59;;;;;;;12.63;10.27;;;7.30;99.90;;;;;;5070911;28;20466;-74
2020/12/19 02:15:25;;;;;;;12.97;11.43;;;7.30;99.90;;;;;;5055859;28;20455;-74
2020/12/19 02:17:51;;;;;;;12.87;11.57;;;7.30;99.90;;;;;;5078343;28;20516;-73
2020/12/19 02:20:17;;;;;;;12.00;10.80;;;7.40;99.90;;;;;;5053776;28;20997;-74
2020/12/19 02:22:43;;;;;;;13.60;10.50;;;7.40;99.90;;;;;;5072536;28;20202;-74
2020/12/19 02:25:08;;;;;;;12.30;10.70;;;7.40;99.90;;;;;;5071000;28;20197;-74
2020/12/19 02:27:34;;;;;;;12.70;10.37;;;7.40;99.90;;;;;;5078150;28;20199;-74
2020/12/19 02:29:59;;;;;;;10.50;9.47;;;7.40;99.90;;;;;;5070970;28;20219;-74
2020/12/19 02:32:25;;;;;;;14.33;10.43;;;7.40;99.90;;;;;;5074544;28;20280;-74
2020/12/19 02:34:50;;;;;;;12.37;11.07;;;7.40;99.90;;;;;;5073002;28;20648;-73
2020/12/19 02:37:16;;;;;;;12.60;11.30;;;7.40;99.90;;;;;;5074887;28;20211;-74
2020/12/19 02:39:41;;;;;;;13.00;11.70;;;7.40;99.90;;;;;;5052815;28;20192;-74
2020/12/19 02:42:07;;;;;;;12.67;11.43;;;7.40;99.90;;;;;;5056009;28;20175;-74
2020/12/19 02:44:32;;;;;;;13.07;11.17;;;7.40;99.90;;;;;;5058119;28;20194;-74
2020/12/19 02:46:58;;;;;;;14.10;11.30;;;7.40;99.90;;;;;;5077082;28;20175;-74
2020/12/19 02:49:23;;;;;;;11.90;10.53;;;7.50;99.90;;;;;;5078456;28;20176;-74
2020/12/19 02:51:49;;;;;;;12.37;10.80;;;7.50;99.90;;;;;;5072239;28;20679;-74
2020/12/19 02:54:14;;;;;;;11.67;10.57;;;7.50;99.90;;;;;;5055852;28;20215;-74
2020/12/19 02:56:40;;;;;;;13.73;11.13;;;7.40;99.90;;;;;;5054993;28;20586;-73
2020/12/19 02:59:05;;;;;;;12.67;11.23;;;7.50;99.90;;;;;;5074945;28;20222;-74
2020/12/19 03:01:31;;;;;;;12.80;11.37;;;7.50;99.90;;;;;;5071077;28;20264;-74
2020/12/19 03:03:58;;;;;;;12.80;11.43;;;7.50;99.90;;;;;;5072364;28;20195;-74
2020/12/19 03:06:24;;;;;;;11.17;10.07;;;7.50;99.90;;;;;;5072513;28;20952;-74
2020/12/19 03:08:49;;;;;;;14.03;12.60;;;7.50;99.90;;;;;;5074199;28;20497;-73
2020/12/19 03:11:15;;;;;;;12.60;11.37;;;7.50;99.90;;;;;;5071885;28;20445;-74
2020/12/19 03:13:41;;;;;;;12.73;11.33;;;7.50;99.90;;;;;;5070637;28;20532;-74
2020/12/19 03:16:06;;;;;;;13.40;12.00;;;7.50;99.90;;;;;;5053873;28;20198;-74
2020/12/19 03:18:32;;;;;;;13.03;11.83;;;7.40;99.90;;;;;;5074703;28;20199;-73
2020/12/19 03:20:58;;;;;;;13.13;11.83;;;7.40;99.90;;;;;;5081853;28;20686;-73
2020/12/19 03:23:23;;;;;;;13.70;12.03;;;7.40;99.90;;;;;;5069611;28;20201;-73
2020/12/19 03:25:50;;;;;;;13.17;11.87;;;7.40;99.90;;;;;;5058304;28;20554;-74
2020/12/19 03:28:16;;;;;;;14.50;12.50;;;7.40;99.90;;;;;;5079661;28;20603;-73
2020/12/19 03:30:42;;;;;;;12.50;11.20;;;7.40;99.90;;;;;;5070583;28;20437;-74
2020/12/19 03:33:08;;;;;;;12.83;11.63;;;7.40;99.90;;;;;;5071049;28;20520;-74
2020/12/19 03:35:34;;;;;;;13.20;11.90;;;7.40;99.90;;;;;;5068986;28;20651;-74
2020/12/19 03:38:00;;;;;;;14.57;12.50;;;7.30;99.90;;;;;;5057094;28;20464;-74
2020/12/19 03:40:26;;;;;;;15.10;13.47;;;7.40;99.90;;;;;;5068933;28;20687;-74
2020/12/19 03:42:52;;;;;;;14.30;12.87;;;7.40;99.90;;;;;;5079272;28;20440;-74
2020/12/19 03:45:18;;;;;;;13.70;12.30;;;7.40;99.90;;;;;;5070506;28;20425;-74
2020/12/19 03:47:43;;;;;;;12.87;11.67;;;7.40;99.90;;;;;;5054402;28;20440;-74
2020/12/19 03:50:09;;;;;;;14.87;12.40;;;7.40;99.90;;;;;;5074010;28;20190;-73
2020/12/19 03:52:34;;;;;;;15.20;13.30;;;7.30;99.90;;;;;;5070003;28;20198;-74
2020/12/19 03:55:00;;;;;;;15.37;13.50;;;7.30;99.90;;;;;;5055378;28;20186;-73
2020/12/19 03:57:25;;;;;;;14.43;12.93;;;7.20;99.90;;;;;;5070371;28;20211;-73
2020/12/19 03:59:51;;;;;;;17.33;13.23;;;7.30;99.90;;;;;;5072969;28;20194;-73
2020/12/19 04:02:16;;;;;;;14.93;13.30;;;7.30;99.90;;;;;;5070369;28;20300;-73
2020/12/19 04:04:42;;;;;;;14.47;13.03;;;7.30;99.90;;;;;;5071994;28;20176;-73
2020/12/19 04:07:09;;;;;;;14.90;13.30;;;7.30;99.90;;;;;;5076176;28;20194;-73
2020/12/19 04:09:35;;;;;;;14.40;12.90;;;7.30;99.90;;;;;;5071127;28;20235;-73
2020/12/19 04:12:00;;;;;;;16.50;14.40;;;7.20;99.90;;;;;;5069085;28;20864;-73
2020/12/19 04:14:37;;;;;;;16.27;13.40;;;7.20;99.90;;;;;;5070540;28;20218;-73
2020/12/19 04:17:07;;;;;;;16.00;13.53;;;7.20;99.90;;;;;;5058601;28;20183;-73
2020/12/19 04:19:33;;;;;;;15.47;13.87;;;7.20;99.90;;;;;;5075253;28;20589;-73
2020/12/19 04:21:59;;;;;;;16.20;14.50;;;7.20;99.90;;;;;;5071457;28;20437;-74
2020/12/19 04:24:24;;;;;;;15.50;13.60;;;7.20;99.90;;;;;;5073442;28;20184;-73
2020/12/19 04:26:50;;;;;;;15.70;14.00;;;7.20;99.90;;;;;;5071086;28;20773;-73
2020/12/19 04:29:16;;;;;;;16.07;14.43;;;7.20;99.90;;;;;;5069001;28;20184;-73
2020/12/19 04:31:41;;;;;;;16.00;14.13;;;7.20;99.90;;;;;;5054864;28;20249;-73
2020/12/19 04:34:07;;;;;;;16.27;14.47;;;7.20;99.90;;;;;;5068801;28;20291;-73
2020/12/19 04:36:32;;;;;;;16.67;14.97;;;7.20;99.90;;;;;;5069308;28;20211;-73
2020/12/19 04:38:58;;;;;;;16.87;15.03;;;7.20;99.90;;;;;;5073194;28;20283;-73
2020/12/19 04:41:23;;;;;;;17.17;15.37;;;7.20;99.90;;;;;;5051546;28;20191;-73
2020/12/19 04:43:49;;;;;;;15.47;13.83;;;7.20;99.90;;;;;;5076308;28;20656;-73
2020/12/19 04:46:17;;;;;;;15.27;13.77;;;7.30;99.90;;;;;;5072076;28;20188;-73
2020/12/19 04:48:44;;;;;;;16.30;14.70;;;7.20;99.90;;;;;;5075368;28;20201;-73
2020/12/19 04:51:09;;;;;;;17.13;14.50;;;7.20;99.90;;;;;;5073082;28;20437;-73
2020/12/19 04:53:36;;;;;;;16.10;14.40;;;7.20;99.90;;;;;;5073275;28;20484;-73
2020/12/19 04:56:03;;;;;;;18.73;15.20;;;7.20;99.90;;;;;;5072510;28;20675;-73
2020/12/19 04:58:28;;;;;;;17.17;15.43;;;7.20;99.90;;;;;;5057124;28;20426;-73
2020/12/19 05:00:54;;;;;;;19.67;16.03;;;7.20;99.90;;;;;;5061388;28;20826;-73
2020/12/19 05:03:19;;;;;;;15.83;14.13;;;7.20;99.90;;;;;;5076040;28;20266;-73
2020/12/19 05:05:45;;;;;;;14.93;13.43;;;7.20;99.90;;;;;;5056664;28;20195;-73
2020/12/19 05:08:11;;;;;;;19.57;16.50;;;7.20;99.90;;;;;;5060741;28;20210;-73
2020/12/19 05:10:38;;;;;;;15.17;13.50;;;7.20;99.90;;;;;;5073842;28;20803;-73
2020/12/19 05:13:05;;;;;;;16.27;14.63;;;7.20;99.90;;;;;;5055909;28;20508;-73
2020/12/19 05:15:30;;;;;;;16.27;14.77;;;7.20;99.90;;;;;;5072353;28;20948;-73
2020/12/19 05:17:59;;;;;;;17.57;13.60;;;7.20;99.90;;;;;;5077297;28;20437;-73
2020/12/19 05:20:27;;;;;;;16.57;14.93;;;7.20;99.90;;;;;;5061110;28;20516;-73
2020/12/19 05:22:53;;;;;;;16.17;14.57;;;7.20;99.90;;;;;;5073823;28;21319;-73
2020/12/19 05:25:21;;;;;;;16.00;14.40;;;7.20;99.90;;;;;;5081632;28;21003;-73
2020/12/19 05:27:48;;;;;;;19.63;15.90;;;7.20;99.90;;;;;;5077577;28;20437;-73
2020/12/19 05:30:15;;;;;;;17.60;15.20;;;7.20;99.90;;;;;;5055542;28;20828;-73
2020/12/19 05:32:46;;;;;;;17.77;15.67;;;7.20;99.90;;;;;;5071950;28;20498;-73
2020/12/19 05:35:14;;;;;;;15.97;14.37;;;7.20;99.90;;;;;;5054155;28;20438;-73
2020/12/19 05:37:40;;;;;;;19.60;15.30;;;7.20;99.90;;;;;;5072892;28;20437;-73
2020/12/19 05:40:12;;;;;;;16.07;14.47;;;7.20;99.90;;;;;;5072808;28;20487;-73
2020/12/19 05:42:39;;;;;;;16.57;14.70;;;7.20;99.90;;;;;;5074910;28;20939;-73
2020/12/19 05:45:25;;;;;;;17.47;15.77;;;7.30;99.90;;;;;;5070951;28;20434;-73
2020/12/19 05:47:51;;;;;;;17.20;15.30;;;7.30;99.90;;;;;;5077162;28;20470;-73
2020/12/19 05:50:18;;;;;;;17.83;16.13;;;7.40;99.90;;;;;;5055584;28;20854;-73
2020/12/19 05:52:43;;;;;;;16.53;14.77;;;7.40;99.90;;;;;;5072231;28;20452;-73
2020/12/19 05:55:14;;;;;;;20.43;15.50;;;7.40;99.90;;;;;;5071919;28;20492;-73
2020/12/19 05:57:40;;;;;;;18.33;15.80;;;7.50;99.90;;;;;;5083641;28;20183;-73
2020/12/19 06:00:17;;;;;;;17.70;15.50;;;7.50;99.90;;;;;;5074646;28;20441;-74
2020/12/19 06:02:44;;;;;;;16.70;15.17;;;7.50;99.90;;;;;;5073286;28;20437;-73
2020/12/19 06:05:13;;;;;;;16.67;14.87;;;7.50;99.90;;;;;;5072029;28;20930;-73
2020/12/19 06:07:40;;;;;;;18.63;16.73;;;7.40;99.90;;;;;;5072913;28;20437;-73
2020/12/19 06:10:12;;;;;;;16.90;15.20;;;7.40;99.90;;;;;;5072475;28;20446;-73
2020/12/19 06:12:51;;;;;;;18.03;16.13;;;7.50;99.90;;;;;;5055201;28;21015;-73
2020/12/19 06:15:58;;;;;;;18.60;16.70;;;7.50;99.90;;;;;;5058396;28;20436;-73
2020/12/19 06:18:46;;;;;;;18.40;16.40;;;7.50;99.90;;;;;;5054699;28;20476;-73
2020/12/19 06:21:12;;;;;;;17.77;15.87;;;7.50;99.90;;;;;;5061112;28;20490;-73
2020/12/19 06:23:39;;;;;;;17.73;15.83;;;7.50;99.90;;;;;;5055944;28;20830;-73
2020/12/19 06:26:06;;;;;;;16.80;14.73;;;7.50;99.90;;;;;;5076613;28;20464;-73
2020/12/19 06:28:43;;;;;;;20.27;18.17;;;7.50;99.90;;;;;;5070622;28;20429;-73
2020/12/19 06:31:17;;;;;;;20.27;17.50;;;7.50;99.90;;;;;;5053342;28;20914;-73
2020/12/19 06:33:51;;;;;;;18.50;16.60;;;7.50;99.90;;;;;;5070545;28;20469;-73
2020/12/19 06:36:17;;;;;;;18.30;16.40;;;7.60;99.90;;;;;;5071245;28;20434;-73
2020/12/19 06:38:44;;;;;;;18.23;16.33;;;7.60;99.90;;;;;;5071597;28;20548;-73
2020/12/19 06:41:30;;;;;;;19.83;17.73;;;7.70;99.90;;;;;;5072050;28;20190;-73
2020/12/19 06:44:16;;;;;;;18.83;16.77;;;7.70;99.90;;;;;;5052816;28;20430;-73
2020/12/19 06:46:42;;;;;;;20.40;16.90;;;7.70;99.90;;;;;;5072550;28;20433;-73
2020/12/19 06:49:26;;;;;;;22.27;18.37;;;7.70;99.90;;;;;;5053866;28;20443;-73
2020/12/19 06:51:59;;;;;;;17.97;16.07;;;7.70;99.90;;;;;;5071569;28;20440;-73
2020/12/19 06:54:31;;;;;;;19.63;17.17;;;7.70;99.90;;;;;;5072973;28;20469;-73
2020/12/19 06:56:57;;;;;;;21.00;17.10;;;7.70;99.90;;;;;;5074175;28;20433;-74
2020/12/19 06:59:27;;;;;;;20.00;17.07;;;7.80;99.90;;;;;;5072108;28;20460;-73
2020/12/19 07:01:52;;;;;;;20.23;17.60;;;7.80;99.90;;;;;;5071223;28;20511;-73
2020/12/19 07:04:38;;;;;;;19.07;16.73;;;7.80;99.90;;;;;;5055328;28;20996;-73
2020/12/19 07:07:06;;;;;;;18.60;16.57;;;7.80;99.90;;;;;;5072000;28;20196;-73
2020/12/19 07:09:33;;;;;;;19.90;17.90;;;7.90;99.90;;;;;;5070814;28;20429;-74
2020/12/19 07:11:58;;;;;;;21.17;18.20;;;7.90;99.90;;;;;;5072118;28;20782;-73
2020/12/19 07:14:24;;;;;;;21.43;19.23;;;8.00;99.90;;;;;;5070423;28;20564;-73
2020/12/19 07:16:51;;;;;;;20.27;18.17;;;8.00;99.90;;;;;;5055813;28;20188;-73
2020/12/19 07:19:19;;;;;;;20.07;17.97;;;8.00;99.90;;;;;;5058681;28;20871;-73
2020/12/19 07:21:46;;;;;;;22.13;19.10;;;8.00;99.90;;;;;;5071859;28;20490;-73
2020/12/19 07:24:12;;;;;;;20.17;17.37;;;8.10;99.90;;;;;;5075429;28;20495;-73
2020/12/19 07:26:38;;;;;;;20.37;18.30;;;8.10;99.90;;;;;;5060500;28;20444;-73
2020/12/19 07:29:24;;;;;;;22.83;18.03;;;8.10;99.90;;;;;;5075947;28;21270;-73
2020/12/19 07:31:55;;;;;;;22.20;18.20;;;8.10;99.90;;;;;;5070743;28;20442;-73
2020/12/19 07:34:22;;;;;;;20.33;18.13;;;8.10;99.90;;;;;;5053526;28;20477;-73
2020/12/19 07:36:50;;;;;;;19.83;16.60;;;8.10;99.90;;;;;;5070789;28;20527;-74
2020/12/19 07:39:17;;;;;;;18.40;16.50;;;8.10;99.90;;;;;;5069689;28;20449;-74
2020/12/19 07:41:44;;;;;;;18.80;16.90;;;8.10;99.90;;;;;;5071447;28;20479;-74
2020/12/19 07:44:17;;;;;;;18.80;16.90;;;8.10;99.90;;;;;;5053449;28;20437;-73
2020/12/19 07:46:50;;;;;;;19.33;17.23;;;8.10;99.90;;;;;;5060933;28;20434;-74
2020/12/19 07:49:43;;;;;;;18.10;16.27;;;8.10;99.90;;;;;;5075091;28;20441;-73
2020/12/19 07:52:22;;;;;;;16.77;15.03;;;8.10;99.90;;;;;;5071782;28;20464;-73
2020/12/19 07:54:54;;;;;;;17.10;15.43;;;8.10;99.90;;;;;;5079773;28;20483;-73
2020/12/19 07:57:19;;;;;;;21.30;16.27;;;8.10;99.90;;;;;;5052505;28;20521;-73
2020/12/19 07:59:47;;;;;;;17.03;15.27;;;8.10;99.90;;;;;;5070537;28;20531;-73
2020/12/19 08:02:15;;;;;;;16.23;14.53;;;8.10;99.90;;;;;;5070421;28;20214;-73
2020/12/19 08:04:48;;;;;;;17.87;15.00;;;8.10;99.90;;;;;;5069409;28;22393;-73
2020/12/19 08:07:13;;;;;;;20.70;15.07;;;8.10;99.90;;;;;;5069354;28;20456;-73
2020/12/19 08:09:39;;;;;;;15.33;13.83;;;8.10;99.90;;;;;;5069953;28;20836;-73
2020/12/19 08:12:06;;;;;;;15.83;14.40;;;8.10;99.90;;;;;;5056261;28;20194;-74
2020/12/19 08:14:34;;;;;;;17.33;15.00;;;8.10;99.90;;;;;;5070745;28;20578;-74
2020/12/19 08:17:00;;;;;;;16.47;14.87;;;8.10;99.90;;;;;;5076813;28;20445;-74
2020/12/19 08:19:32;;;;;;;17.13;15.43;;;8.10;99.90;;;;;;5061034;28;20467;-73
2020/12/19 08:22:01;;;;;;;17.30;15.50;;;8.10;99.90;;;;;;5054893;28;20430;-73
2020/12/19 08:24:27;;;;;;;16.37;14.73;;;8.10;99.90;;;;;;5072988;28;20430;-74
2020/12/19 08:27:44;;;;;;;15.40;13.90;;;8.10;99.90;;;;;;5084222;28;20977;-73
2020/12/19 08:30:12;;;;;;;16.37;14.83;;;8.20;99.90;;;;;;5017183;28;20521;-74
2020/12/19 08:33:07;;;;;;;17.77;15.67;;;8.20;99.90;;;;;;5073750;28;20520;-73
2020/12/19 08:35:34;;;;;;;16.37;14.67;;;8.30;99.90;;;;;;5060885;28;20433;-74
2020/12/19 08:38:21;;;;;;;14.63;13.23;;;8.30;99.90;;;;;;5076672;28;20984;-73
2020/12/19 08:40:48;;;;;;;15.10;13.60;;;8.30;99.90;;;;;;5071796;28;20468;-73
2020/12/19 08:43:16;;;;;;;24.40;14.90;;;8.30;99.90;;;;;;5077120;28;20463;-73
2020/12/19 08:45:49;;;;;;;14.87;13.47;;;8.30;99.90;;;;;;5056307;28;20438;-74
2020/12/19 08:48:22;;;;;;;15.17;13.77;;;8.30;99.90;;;;;;5073191;28;20706;-74
2020/12/19 08:50:51;;;;;;;17.77;13.90;;;8.40;99.90;;;;;;5080900;28;20444;-74
2020/12/19 08:53:23;;;;;;;15.37;13.87;;;8.40;99.90;;;;;;5075169;28;20470;-73
2020/12/19 08:55:50;;;;;;;14.70;13.30;;;8.40;99.90;;;;;;5080401;28;20436;-73
2020/12/19 08:58:27;;;;;;;15.20;13.37;;;8.40;99.90;;;;;;5055867;28;20437;-73
2020/12/19 09:01:14;;;;;;;13.93;12.53;;;8.40;99.90;;;;;;5073977;28;23097;-73
2020/12/19 09:03:40;;;;;;;16.00;14.20;;;8.50;99.90;;;;;;5055957;28;20958;-73
2020/12/19 09:06:08;;;;;;;15.17;13.63;;;8.50;99.90;;;;;;5073741;28;20438;-73
2020/12/19 09:08:45;;;;;;;14.77;13.30;;;8.50;99.90;;;;;;5058314;28;20430;-73
2020/12/19 09:11:31;;;;;;;14.30;12.90;;;8.50;99.90;;;;;;5077273;28;20436;-73
2020/12/19 09:14:08;;;;;;;14.60;13.30;;;8.60;99.90;;;;;;5073395;28;20472;-73
2020/12/19 09:16:34;;;;;;;14.10;12.70;;;8.60;99.90;;;;;;5056078;28;20428;-74
2020/12/19 09:18:59;;;;;;;13.17;11.97;;;8.60;99.90;;;;;;5075643;28;20467;-74
2020/12/19 09:21:25;;;;;;;14.80;13.40;;;8.60;99.90;;;;;;5073002;28;20229;-73
2020/12/19 09:23:50;;;;;;;13.50;12.20;;;8.70;99.90;;;;;;5077557;28;20569;-73
2020/12/19 09:26:16;;;;;;;14.70;12.77;;;8.70;99.90;;;;;;5076344;28;20191;-74
2020/12/19 09:28:42;;;;;;;14.00;12.50;;;8.70;99.90;;;;;;5072081;28;20563;-73
2020/12/19 09:31:08;;;;;;;14.90;12.43;;;8.70;99.90;;;;;;5072207;28;20238;-74
2020/12/19 09:33:34;;;;;;;13.70;12.20;;;8.80;99.90;;;;;;5059129;28;20242;-73
2020/12/19 09:35:59;;;;;;;14.83;12.27;;;8.80;99.90;;;;;;5071689;28;20446;-74
2020/12/19 09:38:25;;;;;;;12.20;11.00;;;8.90;99.90;;;;;;5074741;28;20302;-73
2020/12/19 09:40:50;;;;;;;16.57;10.90;;;8.90;99.90;;;;;;5072939;28;20190;-74
2020/12/19 09:43:16;;;;;;;12.63;10.93;;;9.00;99.90;;;;;;5057221;28;21078;-73
2020/12/19 09:45:42;;;;;;;13.10;11.80;;;9.00;99.90;;;;;;5078938;28;20192;-74
2020/12/19 09:48:07;;;;;;;11.67;10.17;;;9.00;99.90;;;;;;5073712;28;20195;-74
2020/12/19 09:50:33;;;;;;;12.67;10.77;;;9.00;99.90;;;;;;5061438;28;20532;-74
2020/12/19 09:52:59;;;;;;;11.73;10.63;;;9.10;99.90;;;;;;5072294;28;20770;-73
2020/12/19 09:55:27;;;;;;;13.40;12.10;;;9.10;99.90;;;;;;5081009;28;20437;-74
2020/12/19 09:57:52;;;;;;;11.80;10.47;;;9.20;99.90;;;;;;5071270;28;20183;-73
2020/12/19 10:00:18;;;;;;;11.90;10.67;;;9.20;99.90;;;;;;5073705;28;20442;-74
2020/12/19 10:02:46;;;;;;;11.57;10.47;;;9.20;99.90;;;;;;5072542;28;20180;-73
2020/12/19 10:05:12;;;;;;;11.40;9.73;;;9.20;99.90;;;;;;5071684;28;20611;-74
2020/12/19 10:07:38;;;;;;;11.63;10.43;;;9.30;99.90;;;;;;5055430;28;20482;-73
2020/12/19 10:10:04;;;;;;;11.00;9.90;;;9.40;99.90;;;;;;5071692;28;20183;-74
2020/12/19 10:12:30;;;;;;;11.13;10.03;;;9.40;99.90;;;;;;5056909;28;20644;-74
2020/12/19 10:14:55;;;;;;;11.23;10.00;;;9.40;99.90;;;;;;5072966;28;20475;-74
2020/12/19 10:17:21;;;;;;;10.67;9.50;;;9.40;99.90;;;;;;5054149;28;20195;-73
2020/12/19 10:19:47;;;;;;;10.33;8.93;;;9.40;99.90;;;;;;5071762;28;20208;-74
2020/12/19 10:22:12;;;;;;;10.17;9.17;;;9.50;99.90;;;;;;5071782;28;20242;-74
2020/12/19 10:24:38;;;;;;;10.27;9.27;;;9.50;99.90;;;;;;5056827;28;20804;-74
2020/12/19 10:27:03;;;;;;;10.70;8.57;;;9.50;99.90;;;;;;5074351;28;20601;-74
2020/12/19 10:29:29;;;;;;;23.77;21.10;;;9.50;99.90;;;;;;5053431;28;20179;-74
2020/12/19 10:31:55;;;;;;;15.93;10.97;;;9.60;99.90;;;;;;5072287;28;20634;-73
2020/12/19 10:34:20;;;;;;;12.70;11.40;;;9.60;99.90;;;;;;5075259;28;20277;-74
2020/12/19 10:36:52;;;;;;;10.67;9.23;;;9.70;99.90;;;;;;5071454;28;20191;-73
2020/12/19 10:39:18;;;;;;;11.30;9.57;;;9.60;99.90;;;;;;5071747;28;20210;-74
2020/12/19 10:41:48;;;;;;;9.90;8.97;;;9.70;99.90;;;;;;5069989;28;20895;-74
2020/12/19 10:44:13;;;;;;;9.60;8.60;;;9.70;99.90;;;;;;5057732;28;20430;-73
2020/12/19 10:46:39;;;;;;;8.50;7.70;;;9.70;99.90;;;;;;5052778;28;20950;-74
2020/12/19 10:49:04;;;;;;;10.90;9.80;;;9.80;99.90;;;;;;5052843;28;20179;-74
2020/12/19 10:51:30;;;;;;;10.77;9.67;;;9.90;99.90;;;;;;5076417;28;20206;-74
2020/12/19 10:53:56;;;;;;;8.47;7.63;;;9.90;99.90;;;;;;5071611;28;20253;-74
2020/12/19 10:56:22;;;;;;;9.80;7.70;;;9.90;99.90;;;;;;5066340;28;20250;-74
2020/12/19 10:58:48;;;;;;;8.23;7.43;;;9.90;99.90;;;;;;5053199;28;20433;-74
2020/12/19 11:01:14;;;;;;;10.00;7.87;;;10.00;99.90;;;;;;5058131;28;20437;-74
2020/12/19 11:03:41;;;;;;;8.63;7.83;;;10.00;99.90;;;;;;5070932;28;21964;-74
2020/12/19 11:06:07;;;;;;;8.30;7.60;;;10.00;99.90;;;;;;5071724;28;20469;-74
2020/12/19 11:08:34;;;;;;;9.97;7.70;;;10.00;99.90;;;;;;5075511;28;20511;-74
2020/12/19 11:10:59;;;;;;;8.83;7.13;;;10.00;99.90;;;;;;5052617;28;20255;-73
2020/12/19 11:13:25;;;;;;;11.83;8.20;;;10.00;99.90;;;;;;5072085;28;20612;-73
2020/12/19 11:15:50;;;;;;;9.77;7.60;;;10.10;99.90;;;;;;5073454;28;20218;-74
2020/12/19 11:18:16;;;;;;;9.47;7.80;;;10.10;99.90;;;;;;5076732;28;20630;-74
2020/12/19 11:20:41;;;;;;;7.97;7.17;;;10.10;99.90;;;;;;5057065;28;20284;-74
2020/12/19 11:23:07;;;;;;;8.57;7.77;;;10.10;99.90;;;;;;5069721;28;20795;-74
2020/12/19 11:25:32;;;;;;;8.33;7.47;;;10.20;99.90;;;;;;5070317;28;20184;-74
2020/12/19 11:27:58;;;;;;;6.37;5.87;;;10.20;99.90;;;;;;5080189;28;20239;-74
2020/12/19 11:30:23;;;;;;;7.97;6.80;;;10.20;99.90;;;;;;5055959;28;20539;-74
2020/12/19 11:32:49;;;;;;;6.60;5.90;;;10.30;99.90;;;;;;5074298;28;20202;-74
2020/12/19 11:35:15;;;;;;;7.27;6.17;;;10.30;99.90;;;;;;5069931;28;20275;-74
2020/12/19 11:37:40;;;;;;;7.33;6.63;;;10.30;99.90;;;;;;5074444;28;20183;-74
2020/12/19 11:40:06;;;;;;;7.70;6.93;;;10.40;99.90;;;;;;5070017;28;20207;-74
2020/12/19 11:42:32;;;;;;;7.70;6.13;;;10.40;99.90;;;;;;5056971;28;20179;-74
2020/12/19 11:44:57;;;;;;;10.13;5.97;;;10.30;99.90;;;;;;5071183;28;20588;-74
2020/12/19 11:47:23;;;;;;;8.77;6.20;;;10.30;99.90;;;;;;5070189;28;20262;-74
2020/12/19 11:49:48;;;;;;;6.57;5.83;;;10.30;99.90;;;;;;5052817;28;20485;-74
2020/12/19 11:52:14;;;;;;;7.43;5.93;;;10.40;99.90;;;;;;5071316;28;20641;-74
2020/12/19 11:54:39;;;;;;;6.53;5.40;;;10.40;99.90;;;;;;5070682;28;20252;-74
2020/12/19 11:57:06;;;;;;;6.20;5.53;;;10.40;99.90;;;;;;5069113;28;20594;-74
2020/12/19 11:59:32;;;;;;;6.93;5.40;;;10.40;99.90;;;;;;5071578;28;20187;-74
2020/12/19 12:02:03;;;;;;;6.33;5.70;;;10.40;99.90;;;;;;5051539;28;20483;-74
2020/12/19 12:04:28;;;;;;;9.30;6.13;;;10.40;99.90;;;;;;5070820;28;20925;-74
2020/12/19 12:06:54;;;;;;;8.60;6.60;;;10.40;99.90;;;;;;5050866;28;20449;-74
2020/12/19 12:09:19;;;;;;;6.57;5.53;;;10.40;99.90;;;;;;5070889;28;20194;-74
2020/12/19 12:11:45;;;;;;;7.77;6.20;;;10.40;99.90;;;;;;5071117;28;20195;-73
2020/12/19 12:14:10;;;;;;;7.13;6.20;;;10.40;99.90;;;;;;5051407;28;20707;-74
2020/12/19 12:16:36;;;;;;;6.00;5.40;;;10.40;99.90;;;;;;5070645;28;20187;-74
2020/12/19 12:19:01;;;;;;;7.80;5.60;;;10.40;99.90;;;;;;5053614;28;20732;-74
2020/12/19 12:21:35;;;;;;;5.00;4.50;;;10.50;99.90;;;;;;5051341;28;20195;-74
2020/12/19 12:24:01;;;;;;;6.60;5.67;;;10.50;99.90;;;;;;5073205;28;20191;-74
2020/12/19 12:26:27;;;;;;;6.73;5.60;;;10.60;99.90;;;;;;5077170;28;20428;-74
2020/12/19 12:28:53;;;;;;;6.90;6.17;;;10.70;99.90;;;;;;5073834;28;20440;-74
2020/12/19 12:31:20;;;;;;;7.43;5.60;;;10.70;99.90;;;;;;5073358;28;20210;-74
2020/12/19 12:33:46;;;;;;;5.30;4.80;;;10.80;99.90;;;;;;5068550;28;20481;-74
2020/12/19 12:36:12;;;;;;;5.50;4.70;;;10.90;99.90;;;;;;5070916;28;20444;-74
2020/12/19 12:38:38;;;;;;;4.80;4.30;;;10.90;99.90;;;;;;5070678;28;20790;-74
2020/12/19 12:41:05;;;;;;;5.83;4.67;;;11.00;99.90;;;;;;5054740;28;20436;-74
2020/12/19 12:43:31;;;;;;;5.23;4.73;;;11.00;99.90;;;;;;5056873;28;20222;-74